Cudworth, Canada
Current Conditions -  °F | °C
As of 2:00 AM on Friday 21 Nov 2014 (Local Time) from CYXE Reporting Station
Overcast Overcast  
Wind Chill: 21°   Ceiling: 10000
Heat Index: 28°   Visibility: 15mi
Dew Point: 25°   Wind: 7mph
Humidity: 86%   Direction: 210°SSW
Pressure: 29.51"   Gusts: NA
Location:  52.48°N, 105.72°W
Report Text: CYXE 210800Z 21006KT 15SM BKN100 OVC130 M02/M04 A2951 RMK AC6AC2 SLP022
Loading
Personal Weather Stations






























Interactive Weather Map New forecast layout! Learn more

10-Day Weather Forecast

Advertisements
Track Severe Weather on mobile